NCAR-RAP Real-Time Weather Data

Output produced by METARs form (23 June 2018  19:26 UTC)
found at http://weather.rap.ucar.edu/surface/
 
RJSY 231200Z VRB02KT 9999 FEW040 BKN/// 19/11 Q1002
RJSY 231100Z 16002KT 9999 FEW040 SCT170 BKN/// 20/13 Q1002
RJSY 231000Z 25003KT 9999 FEW040 BKN170 BKN/// 20/15 Q1002
RJSY 230900Z VRB02KT CAVOK 23/11 Q1001
RJSY 230800Z 32003KT 280V020 CAVOK 23/13 Q1001
RJSY 230700Z 29003KT 230V010 9999 FEW020 BKN170 24/13 Q1002
RJSY 230600Z 31004KT 250V340 9999 FEW020 BKN170 BKN/// 25/12 Q1003
RJSY 230500Z 32006KT 300V360 CAVOK 28/12 Q1003
RJSY 230400Z 29004KT 250V330 9999 FEW020 SCT170 BKN/// 28/12 Q1003
RJSY 230300Z 08006KT 350V150 CAVOK 28/12 Q1004
RJSY 230200Z 07006KT 360V110 CAVOK 27/12 Q1005
RJSY 230100Z 07006KT 040V110 CAVOK 25/11 Q1006
RJSY 230000Z 08006KT CAVOK 23/13 Q1007
RJSY 222300Z 10004KT 070V160 CAVOK 20/12 Q1007
RJSY 222200Z 10004KT CAVOK 19/12 Q1008
RJSY 221200Z 23007KT 9999 FEW020 19/13 Q1009
RJSY 221100Z 23007KT 9999 FEW020 19/14 Q1008
RJSY 221000Z 23011KT 9999 FEW020 20/14 Q1008
RJSY 220900Z 24012KT 9999 FEW030 21/14 Q1008
RJSY 220800Z 24014KT 9999 FEW030 22/15 Q1008
RJSY 220700Z 24013KT 9999 FEW030 22/15 Q1008
RJSY 220600Z 24015KT 9999 FEW030 23/15 Q1007
RJSY 220500Z 23014KT 9999 FEW030 22/15 Q1007
RJSY 220400Z 25016KT 9999 FEW030 22/15 Q1008
RJSY 220300Z 24017KT 9999 FEW030 23/16 Q1008
RJSY 220200Z 24019KT 9999 FEW030 23/15 Q1008
RJSY 220100Z 24018KT 9999 FEW030 SCT100 22/15 Q1008
RJSY 220000Z 24014KT 9999 FEW020 22/15 Q1007
RJSY 212300Z 23014KT 9999 FEW020 21/14 Q1008
RJSY 212200Z 23013KT 9999 FEW015 20/14 Q1008
RJSY 211200Z 23010KT 9999 FEW015 BKN030 19/16 Q1005
RJSY 211100Z 25015KT 9999 FEW015 SCT040 19/16 Q1004
RJSY 211000Z 24012KT 9999 FEW010 SCT035 20/17 Q1003
RJSY 210900Z 24010G21KT 9999 FEW010 SCT020 BKN/// 20/18 Q1003
RJSY 210800Z 25010KT 9999 FEW008 SCT025 BKN/// 21/18 Q1002